Time;durP1;ratioP1;P1;durP2;ratioP2;P2;SDS_P1;SDS_P2;PMS_P1;PMS_P2;Temp;Humidity;BMP_temperature;BMP_pressure;BME280_temperature;BME280_humidity;BME280_pressure;Samples;Min_cycle;Max_cycle;Signal;HPM_P1;HPM_P2
2022/12/24 00:01:08;;;;;;;23.08;5.20;;;;;;;11.19;73.50;100623.69;5101421;28;20083;-70
2022/12/24 00:03:37;;;;;;;33.17;7.43;;;;;;;11.20;73.06;100633.41;5101664;28;20075;-70
2022/12/24 00:06:06;;;;;;;27.75;5.72;;;;;;;11.20;73.28;100627.19;5100295;28;20044;-70
2022/12/24 00:08:35;;;;;;;23.48;5.15;;;;;;;11.18;73.18;100622.06;5099082;28;20055;-68
2022/12/24 00:11:02;;;;;;;24.90;5.78;;;;;;;11.18;73.24;100627.44;5101249;28;20587;-69
2022/12/24 00:13:30;;;;;;;27.13;5.72;;;;;;;11.17;73.28;100628.47;5098163;28;20051;-68
2022/12/24 00:15:59;;;;;;;25.00;4.85;;;;;;;11.18;73.37;100626.59;5100476;28;20045;-68
2022/12/24 00:18:27;;;;;;;22.05;6.10;;;;;;;11.16;73.44;100629.53;5102112;28;20083;-69
2022/12/24 00:20:55;;;;;;;29.88;6.38;;;;;;;11.15;73.48;100625.19;5099972;28;20054;-69
2022/12/24 00:23:23;;;;;;;29.92;5.50;;;;;;;11.17;73.54;100635.72;5103811;28;20060;-68
2022/12/24 00:25:51;;;;;;;28.35;6.20;;;;;;;11.15;73.50;100629.75;5105126;28;20048;-69
2022/12/24 00:28:19;;;;;;;23.42;5.10;;;;;;;11.14;73.23;100642.38;5102999;28;20403;-69
2022/12/24 00:30:47;;;;;;;25.13;6.60;;;;;;;11.14;73.42;100630.81;5101955;28;20059;-69
2022/12/24 00:33:16;;;;;;;31.33;6.75;;;;;;;11.15;73.57;100638.66;5101026;28;20048;-68
2022/12/24 00:35:52;;;;;;;24.88;6.32;;;;;;;11.14;73.44;100653.16;5104530;28;20075;-69
2022/12/24 00:38:20;;;;;;;23.02;5.15;;;;;;;11.14;73.43;100646.94;5105936;28;20074;-68
2022/12/24 00:40:48;;;;;;;24.23;5.15;;;;;;;11.14;73.76;100650.47;5104563;28;20040;-69
2022/12/24 00:43:16;;;;;;;27.83;6.82;;;;;;;11.14;73.67;100655.03;5102389;28;20048;-69
2022/12/24 00:45:43;;;;;;;25.48;5.40;;;;;;;11.12;73.86;100662.50;5102139;28;20039;-69
2022/12/24 00:48:11;;;;;;;26.80;5.63;;;;;;;11.12;73.46;100670.56;5108423;28;20052;-69
2022/12/24 00:50:40;;;;;;;26.30;5.63;;;;;;;11.13;73.42;100674.91;5102931;28;20051;-69
2022/12/24 00:53:08;;;;;;;31.98;6.40;;;;;;;11.13;73.33;100682.97;5102647;28;20079;-69
2022/12/24 00:55:36;;;;;;;21.63;5.85;;;;;;;11.12;73.33;100679.47;5107688;28;20043;-69
2022/12/24 00:58:04;;;;;;;30.38;5.93;;;;;;;11.13;73.37;100682.97;5102895;28;20100;-69
2022/12/24 01:00:31;;;;;;;28.90;6.45;;;;;;;11.13;73.11;100688.34;5101445;28;20047;-70
2022/12/24 01:02:59;;;;;;;25.58;6.32;;;;;;;11.13;73.17;100693.72;5111207;28;20067;-69
2022/12/24 01:05:26;;;;;;;30.13;7.32;;;;;;;11.11;73.09;100696.63;5106767;28;20100;-69
2022/12/24 01:07:55;;;;;;;31.50;8.15;;;;;;;11.11;73.20;100695.81;5106621;28;20059;-69
2022/12/24 01:10:23;;;;;;;31.02;6.75;;;;;;;11.09;73.24;100696.88;5103719;28;20074;-70
2022/12/24 01:12:51;;;;;;;25.27;6.50;;;;;;;11.08;73.13;100695.22;5106111;28;20111;-69
2022/12/24 01:15:19;;;;;;;26.25;5.95;;;;;;;11.09;73.17;100701.44;5103522;28;20044;-69
2022/12/24 01:17:46;;;;;;;31.13;7.43;;;;;;;11.08;73.22;100707.84;5102843;28;20068;-69
2022/12/24 01:20:17;;;;;;;28.05;5.82;;;;;;;11.07;73.35;100720.47;5105223;28;20139;-70
2022/12/24 01:22:45;;;;;;;27.85;7.35;;;;;;;11.04;73.22;100712.88;5104384;28;20059;-69
2022/12/24 01:25:14;;;;;;;35.47;5.72;;;;;;;10.98;73.56;100712.97;5108438;28;20047;-69
2022/12/24 01:27:42;;;;;;;24.30;5.50;;;;;;;11.04;73.43;100722.81;5096974;28;20047;-69
2022/12/24 01:30:13;;;;;;;31.67;6.32;;;;;;;11.02;73.58;100723.03;5103387;28;20115;-69
2022/12/24 01:32:41;;;;;;;24.40;6.45;;;;;;;11.01;73.42;100718.72;5109771;28;20107;-69
2022/12/24 01:35:09;;;;;;;19.52;6.32;;;;;;;11.01;73.40;100728.63;5101058;28;20062;-70
2022/12/24 01:37:37;;;;;;;27.27;6.43;;;;;;;11.02;73.50;100724.91;5104770;28;20497;-69
2022/12/24 01:45:48;;;;;;;22.05;5.32;;;;;;;11.00;73.90;100729.69;5106995;28;20040;-70
2022/12/24 01:48:21;;;;;;;22.13;5.57;;;;;;;10.99;73.61;100741.50;5099107;28;20048;-69
2022/12/24 01:50:53;;;;;;;19.77;5.18;;;;;;;10.97;73.85;100736.34;5110704;28;20036;-70
2022/12/24 01:53:22;;;;;;;24.88;6.03;;;;;;;10.97;73.63;100733.66;5105386;28;20049;-69
2022/12/24 01:55:50;;;;;;;26.33;5.57;;;;;;;10.96;73.72;100742.75;5105627;28;20043;-70
2022/12/24 01:58:22;;;;;;;22.85;5.88;;;;;;;10.97;73.51;100735.53;5102892;28;20487;-69
2022/12/24 02:00:51;;;;;;;28.40;6.30;;;;;;;10.88;73.59;100728.81;5105521;28;20067;-69
2022/12/24 02:03:19;;;;;;;24.00;6.70;;;;;;;10.96;73.60;100741.94;5102300;28;20136;-69
2022/12/24 02:05:49;;;;;;;25.77;5.53;;;;;;;10.97;73.64;100755.16;5102107;28;20135;-69
2022/12/24 02:08:18;;;;;;;26.38;6.43;;;;;;;10.95;73.67;100751.88;5097615;28;20083;-70
2022/12/24 02:10:47;;;;;;;25.73;5.55;;;;;;;10.95;73.60;100757.25;5094489;28;20055;-69
2022/12/24 02:13:17;;;;;;;22.83;6.82;;;;;;;10.94;73.68;100747.56;5097133;28;20058;-70
2022/12/24 02:16:00;;;;;;;23.73;5.85;;;;;;;10.95;73.86;100759.13;5100660;28;20080;-69
2022/12/24 02:18:35;;;;;;;24.10;6.55;;;;;;;10.95;73.79;100765.31;5103029;28;20564;-69
2022/12/24 02:21:39;;;;;;;32.80;7.25;;;;;;;10.93;73.82;100763.91;5101709;28;20048;-69
2022/12/24 02:24:44;;;;;;;31.67;5.97;;;;;;;10.94;73.83;100768.25;5104225;28;20045;-70
2022/12/24 02:27:21;;;;;;;24.10;4.55;;;;;;;10.94;73.90;100760.19;5100923;28;20116;-70
2022/12/24 02:30:03;;;;;;;;;;;;;;;10.92;73.88;100770.34;5104050;28;20043;-70
2022/12/24 02:32:43;;;;;;;29.73;5.57;;;;;;;10.92;74.10;100771.16;5100386;28;19927;-70
2022/12/24 02:35:15;;;;;;;28.20;6.70;;;;;;;10.92;74.10;100773.84;5103702;28;20080;-70
2022/12/24 02:37:48;;;;;;;28.30;6.55;;;;;;;10.92;73.90;100776.53;5111428;28;20051;-70
2022/12/24 02:40:21;;;;;;;24.25;7.13;;;;;;;10.92;73.99;100775.72;5112916;28;20066;-70
2022/12/24 02:42:53;;;;;;;27.73;4.88;;;;;;;10.92;73.96;100768.47;5102740;28;20075;-70
2022/12/24 02:45:23;;;;;;;27.55;5.28;;;;;;;10.92;73.99;100771.16;5109531;28;20043;-70
2022/12/24 02:47:54;;;;;;;27.95;7.13;;;;;;;10.91;74.05;100774.88;5102236;28;20075;-70
2022/12/24 02:50:23;;;;;;;24.40;5.25;;;;;;;10.92;74.17;100779.22;5105128;28;20071;-69
2022/12/24 02:52:52;;;;;;;18.83;5.50;;;;;;;10.92;74.08;100786.47;5098739;28;20051;-70
2022/12/24 02:55:24;;;;;;;22.73;5.05;;;;;;;10.90;74.08;100789.38;5112923;28;20075;-70
2022/12/24 02:58:06;;;;;;;21.27;6.00;;;;;;;10.92;73.96;100792.66;5094499;28;20066;-69
2022/12/24 03:00:44;;;;;;;20.20;5.38;;;;;;;10.92;74.00;100786.47;5101031;28;20044;-69
2022/12/24 03:03:25;;;;;;;27.95;6.25;;;;;;;10.93;74.13;100793.50;5091685;28;20397;-70
2022/12/24 03:06:01;;;;;;;21.65;5.20;;;;;;;10.90;74.05;100789.38;5108857;28;20055;-69
2022/12/24 03:08:38;;;;;;;26.05;5.85;;;;;;;10.90;74.36;100797.44;5095324;28;20071;-70
2022/12/24 03:11:08;;;;;;;;;;;;;;;10.90;74.22;100802.00;5092781;28;20054;-69
2022/12/24 03:13:36;;;;;;;19.58;4.90;;;;;;;10.88;73.98;100796.84;5108455;28;19920;-69
2022/12/24 03:16:07;;;;;;;18.08;5.32;;;;;;;10.89;74.27;100794.97;5106856;28;20468;-70
2022/12/24 03:18:38;;;;;;;21.60;5.40;;;;;;;10.88;74.22;100804.91;5100503;28;20048;-69
2022/12/24 03:21:12;;;;;;;22.90;5.85;;;;;;;10.88;74.23;100791.47;5101805;28;20044;-70
2022/12/24 03:23:40;;;;;;;24.80;5.90;;;;;;;10.89;74.24;100795.81;5109281;28;20062;-70
2022/12/24 03:26:12;;;;;;;28.45;5.22;;;;;;;10.89;74.44;100793.13;5105583;28;20067;-69
2022/12/24 03:28:41;;;;;;;29.20;6.88;;;;;;;10.88;74.14;100804.91;5092793;28;20061;-69
2022/12/24 03:31:10;;;;;;;23.63;4.53;;;;;;;10.84;74.28;100798.34;5101947;28;20127;-69
2022/12/24 03:33:40;;;;;;;18.77;6.70;;;;;;;10.88;74.31;100806.78;5106955;28;20077;-70
2022/12/24 03:36:09;;;;;;;25.48;5.07;;;;;;;10.88;74.42;100806.78;5103518;28;20068;-70
2022/12/24 03:38:37;;;;;;;23.33;4.85;;;;;;;10.88;74.51;100807.59;5100922;28;20394;-70
2022/12/24 03:41:05;;;;;;;15.88;4.43;;;;;;;10.88;74.23;100812.97;5096244;28;20044;-70
2022/12/24 03:43:33;;;;;;;24.10;4.80;;;;;;;10.87;74.40;100805.13;5099022;28;20107;-70
2022/12/24 03:46:06;;;;;;;22.38;4.47;;;;;;;10.87;74.45;100811.34;5099890;28;20052;-70
2022/12/24 03:48:34;;;;;;;19.88;4.68;;;;;;;10.87;74.38;100818.59;5100686;28;20055;-70
2022/12/24 03:51:04;;;;;;;15.20;4.30;;;;;;;10.87;74.38;100823.97;5111291;28;20131;-70
2022/12/24 03:53:31;;;;;;;17.67;3.85;;;;;;;10.87;74.52;100814.03;5100640;28;20133;-69
2022/12/24 03:55:59;;;;;;;19.55;4.72;;;;;;;10.87;74.50;100823.97;5101591;28;20109;-70
2022/12/24 03:58:27;;;;;;;16.10;3.92;;;;;;;10.88;74.43;100820.22;5105264;28;20072;-69
2022/12/24 04:00:55;;;;;;;25.70;4.75;;;;;;;10.86;74.68;100822.31;5104940;28;20067;-69
2022/12/24 04:03:22;;;;;;;20.92;5.25;;;;;;;10.85;74.61;100826.06;5103611;28;20048;-70
2022/12/24 04:06:00;;;;;;;17.05;4.07;;;;;;;10.84;74.90;100829.78;5108515;28;20070;-70
2022/12/24 04:08:30;;;;;;;16.73;3.33;;;;;;;10.84;74.60;100838.66;5110837;28;20107;-70
2022/12/24 04:10:57;;;;;;;19.55;4.90;;;;;;;10.83;74.47;100823.59;5102992;28;20128;-70
2022/12/24 04:13:30;;;;;;;17.88;4.18;;;;;;;10.84;74.82;100833.28;5103165;28;20044;-70
2022/12/24 04:15:58;;;;;;;14.10;3.28;;;;;;;10.85;74.82;100840.31;5103178;28;20051;-70
2022/12/24 04:18:27;;;;;;;15.52;4.45;;;;;;;10.85;74.71;100844.88;5098983;28;20414;-69
2022/12/24 04:20:55;;;;;;;23.33;5.18;;;;;;;10.83;74.88;100839.72;5105177;28;20064;-69
2022/12/24 04:23:23;;;;;;;22.88;5.13;;;;;;;10.86;74.76;100846.50;5100770;28;20181;-69
2022/12/24 04:25:52;;;;;;;19.63;3.53;;;;;;;10.87;74.97;100856.22;5106360;28;20073;-69
2022/12/24 04:28:20;;;;;;;24.38;5.50;;;;;;;10.86;74.86;100851.88;5108675;28;20079;-69
2022/12/24 04:30:48;;;;;;;20.08;4.88;;;;;;;10.85;74.82;100848.38;5103135;28;20044;-70
2022/12/24 04:33:16;;;;;;;16.33;4.60;;;;;;;10.85;75.08;100842.19;5101636;28;20466;-70
2022/12/24 04:35:43;;;;;;;17.92;5.13;;;;;;;10.84;75.11;100854.81;5099318;28;20136;-70
2022/12/24 04:38:11;;;;;;;22.52;4.78;;;;;;;10.79;74.97;100841.22;5104356;28;20082;-69
2022/12/24 04:40:39;;;;;;;19.75;5.15;;;;;;;10.85;75.16;100861.81;5098167;28;20050;-70
2022/12/24 04:43:08;;;;;;;18.88;4.60;;;;;;;10.85;74.82;100863.69;5102327;28;20047;-70
2022/12/24 04:45:36;;;;;;;25.40;4.28;;;;;;;10.84;75.11;100864.75;5102489;28;20048;-70
2022/12/24 04:48:04;;;;;;;24.35;7.03;;;;;;;10.84;74.97;100854.81;5104424;28;20044;-70
2022/12/24 04:50:32;;;;;;;24.50;4.45;;;;;;;10.83;75.17;100855.03;5107137;28;20079;-69
2022/12/24 04:52:59;;;;;;;28.38;5.15;;;;;;;10.82;75.18;100848.81;5105523;28;20060;-70
2022/12/24 04:55:27;;;;;;;22.98;4.78;;;;;;;10.83;74.93;100863.09;5102670;28;20071;-70
2022/12/24 04:57:55;;;;;;;20.17;5.28;;;;;;;10.81;75.01;100859.81;5108315;28;20044;-70
2022/12/24 05:00:24;;;;;;;19.60;4.32;;;;;;;10.81;74.93;100857.94;5108880;28;20479;-70
2022/12/24 05:02:52;;;;;;;17.45;4.32;;;;;;;10.81;75.01;100857.94;5102800;28;20051;-70
2022/12/24 05:05:20;;;;;;;16.17;4.60;;;;;;;10.80;74.93;100858.16;5105789;28;20052;-70
2022/12/24 05:07:48;;;;;;;16.42;3.65;;;;;;;10.80;75.03;100868.91;5098698;28;20071;-70
2022/12/24 05:10:16;;;;;;;18.40;4.05;;;;;;;10.81;74.96;100873.25;5105561;28;20083;-70
2022/12/24 05:12:44;;;;;;;22.63;4.85;;;;;;;10.79;75.01;100878.03;5114857;28;20074;-71
2022/12/24 05:15:12;;;;;;;19.25;4.88;;;;;;;10.79;74.89;100873.47;5105318;28;20122;-68
2022/12/24 05:17:41;;;;;;;17.23;4.55;;;;;;;10.78;75.01;100871.81;5098072;28;20569;-70
2022/12/24 05:20:09;;;;;;;21.30;5.80;;;;;;;10.77;75.04;100864.81;5098369;28;20054;-70
2022/12/24 05:28:08;;;;;;;16.73;3.88;;;;;;;10.77;74.82;100871.00;5101591;28;20044;-69
2022/12/24 05:30:36;;;;;;;19.88;4.68;;;;;;;10.76;74.72;100863.16;5103629;28;20055;-69
2022/12/24 05:33:05;;;;;;;17.75;4.53;;;;;;;10.75;74.95;100867.72;5098618;28;20101;-70
2022/12/24 05:35:33;;;;;;;19.23;3.53;;;;;;;10.74;75.04;100860.69;5102187;28;20048;-69
2022/12/24 05:38:01;;;;;;;19.40;4.57;;;;;;;10.75;74.90;100869.59;5101927;28;20070;-70
2022/12/24 05:40:28;;;;;;;24.27;6.07;;;;;;;10.74;74.78;100867.94;5101147;28;20048;-69
2022/12/24 05:42:56;;;;;;;22.10;4.78;;;;;;;10.73;74.83;100871.66;5101824;28;20151;-69
2022/12/24 05:45:24;;;;;;;24.30;4.07;;;;;;;10.73;74.93;100885.13;5107981;28;20048;-68
2022/12/24 05:47:52;;;;;;;23.75;5.65;;;;;;;10.72;74.98;100894.22;5096813;28;20041;-70
2022/12/24 05:50:21;;;;;;;21.40;5.05;;;;;;;10.73;74.99;100895.88;4749146;28;10000253;-69
2022/12/24 05:52:49;;;;;;;23.63;4.32;;;;;;;10.73;75.09;100895.88;5101055;28;20044;-69
2022/12/24 05:55:17;;;;;;;24.90;6.10;;;;;;;10.73;75.01;100901.25;5105787;28;20041;-70
2022/12/24 05:57:45;;;;;;;16.08;3.75;;;;;;;10.73;75.03;100904.75;5097883;28;20466;-68
2022/12/24 06:00:13;;;;;;;18.70;3.97;;;;;;;10.71;75.31;100906.00;5101120;28;20138;-67
2022/12/24 06:02:41;;;;;;;16.15;4.40;;;;;;;10.72;75.08;100913.03;5105085;28;20044;-69
2022/12/24 06:05:09;;;;;;;25.40;5.75;;;;;;;10.73;74.94;100909.31;5104924;28;20052;-67
2022/12/24 06:07:39;;;;;;;22.75;5.22;;;;;;;10.73;74.89;100912.81;5107464;28;20071;-69
2022/12/24 06:10:08;;;;;;;23.05;5.80;;;;;;;10.64;74.87;100898.00;5102776;28;20048;-68
2022/12/24 06:12:36;;;;;;;20.27;6.88;;;;;;;10.72;74.89;100911.16;5097369;28;20058;-69
2022/12/24 06:15:05;;;;;;;23.88;5.55;;;;;;;10.70;74.92;100905.19;5102604;28;20073;-69
2022/12/24 06:17:33;;;;;;;18.92;4.10;;;;;;;10.72;74.88;100905.78;5081740;28;20051;-69
2022/12/24 06:20:01;;;;;;;21.90;5.07;;;;;;;10.70;74.95;100913.25;5094972;28;20555;-69
2022/12/24 06:22:29;;;;;;;16.00;4.13;;;;;;;10.69;74.81;100911.59;5104372;28;20083;-67
2022/12/24 06:24:58;;;;;;;20.35;5.78;;;;;;;10.68;74.86;100915.34;5097382;28;20101;-71
2022/12/24 06:27:26;;;;;;;24.38;4.60;;;;;;;10.68;74.64;100909.16;5101785;28;20139;-69
2022/12/24 06:29:54;;;;;;;21.27;4.50;;;;;;;10.67;74.79;100919.06;5099184;28;20047;-69
2022/12/24 06:32:22;;;;;;;15.30;4.72;;;;;;;10.70;74.62;100924.00;5100472;28;20588;-67
2022/12/24 06:34:50;;;;;;;15.80;4.40;;;;;;;10.67;74.72;100924.44;5096004;28;20056;-68
2022/12/24 06:37:18;;;;;;;21.70;5.15;;;;;;;10.67;74.66;100931.69;5104773;28;20230;-69
2022/12/24 06:39:46;;;;;;;23.17;5.30;;;;;;;10.65;74.65;100931.91;5100202;28;20055;-68
2022/12/24 06:42:15;;;;;;;21.05;4.25;;;;;;;10.65;74.69;100941.84;5099336;28;20081;-68
2022/12/24 06:44:42;;;;;;;22.80;4.75;;;;;;;10.65;74.74;100944.53;5102126;28;20155;-70
2022/12/24 06:47:10;;;;;;;19.95;5.03;;;;;;;10.63;74.71;100934.00;5112719;28;20047;-68
2022/12/24 06:49:38;;;;;;;23.85;4.32;;;;;;;10.62;74.63;100940.41;5101030;28;20044;-69
2022/12/24 06:52:06;;;;;;;20.88;4.97;;;;;;;10.62;74.71;100937.72;5096827;28;20051;-69
2022/12/24 06:54:34;;;;;;;23.88;6.15;;;;;;;10.64;74.73;100937.50;5111353;28;20071;-71
2022/12/24 06:57:01;;;;;;;23.67;5.82;;;;;;;10.62;74.49;100942.28;5104690;28;20067;-71
2022/12/24 06:59:31;;;;;;;24.33;5.28;;;;;;;10.62;74.55;100943.09;5105937;28;20055;-72
2022/12/24 07:01:59;;;;;;;22.40;5.68;;;;;;;10.62;74.60;100950.34;5089830;28;20127;-71
2022/12/24 07:04:27;;;;;;;24.00;4.88;;;;;;;10.62;74.59;100947.66;5103049;28;20056;-71
2022/12/24 07:06:55;;;;;;;20.48;5.55;;;;;;;10.61;74.62;100952.19;5103494;28;20056;-69
2022/12/24 07:09:23;;;;;;;24.35;5.22;;;;;;;10.60;74.39;100960.47;5097024;28;20070;-67
2022/12/24 07:11:50;;;;;;;21.30;4.95;;;;;;;10.60;74.53;100955.09;5101521;28;20048;-71
2022/12/24 07:14:18;;;;;;;20.27;4.40;;;;;;;10.61;74.37;100962.97;5102461;28;20047;-68
2022/12/24 07:16:48;;;;;;;21.40;4.68;;;;;;;10.59;74.40;100961.53;5103576;28;20071;-71
2022/12/24 07:19:25;;;;;;;22.17;4.35;;;;;;;10.59;74.67;100964.22;5102593;28;20052;-71
2022/12/24 07:21:53;;;;;;;25.15;5.40;;;;;;;10.59;74.63;100962.34;5103232;28;20166;-71
2022/12/24 07:24:21;;;;;;;22.30;5.07;;;;;;;10.59;74.60;100970.41;5086181;28;20485;-69
2022/12/24 07:26:48;;;;;;;20.52;5.00;;;;;;;10.59;74.51;100981.16;5095992;28;20135;-72
2022/12/24 07:29:16;;;;;;;20.17;4.75;;;;;;;10.58;74.60;100990.25;5097818;28;20048;-70
2022/12/24 07:31:44;;;;;;;22.33;5.88;;;;;;;10.57;74.83;100988.63;5096959;28;20058;-69
2022/12/24 07:34:13;;;;;;;20.98;3.80;;;;;;;10.58;74.55;100997.50;5092817;28;20055;-71
2022/12/24 07:36:41;;;;;;;22.30;6.25;;;;;;;10.58;74.69;100994.81;5099403;28;20795;-72
2022/12/24 07:39:09;;;;;;;26.70;6.00;;;;;;;10.57;74.62;100991.31;5085085;28;20055;-73
2022/12/24 07:41:37;;;;;;;21.13;4.93;;;;;;;10.58;74.59;100992.94;5100996;28;20083;-73
2022/12/24 07:44:11;;;;;;;20.95;5.22;;;;;;;10.57;74.57;100995.88;5100875;28;20066;-71
2022/12/24 07:46:39;;;;;;;25.73;5.20;;;;;;;10.59;74.58;101002.66;5100631;28;20050;-72
2022/12/24 07:49:07;;;;;;;16.67;3.90;;;;;;;10.67;74.46;101020.38;5093372;28;20121;-71
2022/12/24 07:51:37;;;;;;;32.38;6.85;;;;;;;10.61;74.43;101019.41;5097840;28;20159;-70
2022/12/24 07:54:05;;;;;;;35.67;8.63;;;;;;;10.59;74.55;101023.34;5096806;28;20078;-71
2022/12/24 07:56:34;;;;;;;15.95;5.28;;;;;;;10.57;74.57;101017.34;5094234;28;20143;-70
2022/12/24 07:59:02;;;;;;;19.20;5.10;;;;;;;10.56;74.53;101027.28;5090105;28;20048;-70
2022/12/24 08:01:29;;;;;;;35.80;6.43;;;;;;;10.57;74.56;101030.78;5096159;28;20086;-70
2022/12/24 08:03:57;;;;;;;22.48;5.35;;;;;;;10.57;74.46;101037.00;5096872;28;20139;-72
2022/12/24 08:06:26;;;;;;;20.40;4.00;;;;;;;10.56;74.66;101037.22;5094785;28;20056;-73
2022/12/24 08:08:55;;;;;;;24.45;5.75;;;;;;;10.56;74.64;101037.22;5096570;28;20116;-73
2022/12/24 08:11:23;;;;;;;19.90;5.18;;;;;;;10.55;74.51;101044.44;5102149;28;20059;-73
2022/12/24 08:13:50;;;;;;;20.60;5.88;;;;;;;10.55;74.47;101055.19;5092893;28;20783;-73
2022/12/24 08:16:18;;;;;;;27.40;5.75;;;;;;;10.54;74.59;101061.63;5088531;28;20056;-70
2022/12/24 08:18:46;;;;;;;32.40;5.88;;;;;;;10.52;74.80;101066.38;5098322;28;20048;-72
2022/12/24 08:21:14;;;;;;;34.33;5.63;;;;;;;10.54;74.73;101066.16;5096630;28;20052;-73
2022/12/24 08:23:42;;;;;;;25.55;5.05;;;;;;;10.55;74.62;101079.38;5094852;28;20051;-70
2022/12/24 08:26:12;;;;;;;30.48;5.13;;;;;;;10.55;74.43;101078.56;5095131;28;20076;-69
2022/12/24 08:28:40;;;;;;;31.85;5.70;;;;;;;10.56;74.56;101072.16;5094132;28;20036;-70
2022/12/24 08:31:08;;;;;;;21.80;4.05;;;;;;;10.57;74.68;101076.47;5095228;28;20111;-66
2022/12/24 08:33:36;;;;;;;27.95;6.15;;;;;;;10.51;74.93;101078.16;5096806;28;20161;-71
2022/12/24 08:36:04;;;;;;;25.83;5.45;;;;;;;10.58;74.88;101087.03;5097764;28;20096;-71
2022/12/24 08:38:32;;;;;;;15.98;4.88;;;;;;;10.57;74.52;101088.06;5091162;28;20485;-72
2022/12/24 08:41:00;;;;;;;21.15;4.97;;;;;;;10.58;74.86;101080.81;5097389;28;20124;-72
2022/12/24 08:43:29;;;;;;;18.58;4.50;;;;;;;10.57;74.80;101087.22;5107433;28;20134;-70
2022/12/24 08:46:02;;;;;;;20.63;4.45;;;;;;;10.58;74.46;101089.69;5094877;28;20044;-68
2022/12/24 08:48:31;;;;;;;22.13;4.55;;;;;;;10.58;74.54;101094.25;5099380;28;20059;-72
2022/12/24 08:50:59;;;;;;;24.00;5.68;;;;;;;10.57;74.68;101098.81;5099086;28;20060;-72
2022/12/24 08:53:27;;;;;;;17.75;3.97;;;;;;;10.57;74.60;101103.34;5102473;28;20048;-67
2022/12/24 08:56:01;;;;;;;29.20;8.45;;;;;;;10.58;74.67;101096.94;5096938;28;20044;-70
2022/12/24 08:58:31;;;;;;;18.35;4.10;;;;;;;10.49;74.63;101095.56;5098598;28;20048;-70
2022/12/24 09:00:59;;;;;;;17.63;4.43;;;;;;;10.58;74.87;101107.69;5100197;28;20040;-73
2022/12/24 09:03:28;;;;;;;26.90;4.85;;;;;;;10.58;74.96;101108.53;5098447;28;20084;-69
2022/12/24 09:05:55;;;;;;;23.52;4.97;;;;;;;10.58;75.06;101119.25;5100952;28;20227;-69
2022/12/24 09:08:23;;;;;;;18.52;4.38;;;;;;;10.58;74.87;101113.88;5100030;28;20044;-69
2022/12/24 09:10:51;;;;;;;22.52;5.30;;;;;;;10.56;74.99;101124.03;5097188;28;20044;-71
2022/12/24 09:13:19;;;;;;;26.50;5.13;;;;;;;10.57;75.09;101131.06;5088656;28;20052;-71
2022/12/24 09:15:54;;;;;;;19.75;5.00;;;;;;;10.58;75.21;101139.94;5100718;28;20047;-71
2022/12/24 09:18:22;;;;;;;24.08;6.72;;;;;;;10.59;75.00;101150.47;5095147;28;20488;-72
2022/12/24 09:20:50;;;;;;;19.73;5.03;;;;;;;10.62;75.00;101157.28;5099790;28;20052;-70
2022/12/24 09:23:23;;;;;;;20.67;4.60;;;;;;;10.60;74.86;101154.00;5101774;28;20048;-71
2022/12/24 09:25:51;;;;;;;26.50;5.45;;;;;;;10.61;74.84;101159.16;5100270;28;20048;-63
2022/12/24 09:28:19;;;;;;;23.92;5.00;;;;;;;10.63;75.04;101162.44;5108098;28;20059;-73
2022/12/24 09:30:57;;;;;;;27.17;5.68;;;;;;;10.61;74.98;101169.06;5097242;28;20059;-72
2022/12/24 09:33:25;;;;;;;20.38;5.68;;;;;;;10.62;74.99;101174.25;5105422;28;20121;-71
2022/12/24 09:35:53;;;;;;;28.48;5.90;;;;;;;10.62;74.94;101168.03;5096987;28;20053;-71
2022/12/24 09:38:22;;;;;;;22.58;5.07;;;;;;;10.64;74.98;101176.72;5100735;28;20059;-70
2022/12/24 09:40:51;;;;;;;28.65;4.65;;;;;;;10.64;74.84;101176.72;5100274;28;20085;-71
2022/12/24 09:43:21;;;;;;;25.95;4.78;;;;;;;10.61;74.77;101172.59;5104122;28;20082;-73
2022/12/24 09:46:02;;;;;;;25.17;5.80;;;;;;;10.62;74.93;101176.94;5099582;28;20074;-74
2022/12/24 09:48:33;;;;;;;25.00;6.07;;;;;;;10.62;74.94;101187.69;5098196;28;20052;-73
2022/12/24 09:51:04;;;;;;;26.33;6.07;;;;;;;10.62;75.06;101185.00;5096731;28;20179;-73
2022/12/24 09:53:38;;;;;;;23.13;5.00;;;;;;;10.62;75.06;101189.53;5098760;28;20047;-70
2022/12/24 09:56:11;;;;;;;20.42;5.10;;;;;;;10.64;75.01;101198.22;5102227;28;20111;-75
2022/12/24 09:58:43;;;;;;;25.13;5.85;;;;;;;10.64;74.97;101199.03;5095013;28;20053;-70
2022/12/24 10:01:15;;;;;;;25.70;4.78;;;;;;;10.64;74.96;101192.84;5100003;28;20117;-72
2022/12/24 10:03:45;;;;;;;28.42;6.43;;;;;;;10.63;74.93;101194.69;5094976;28;20087;-74
2022/12/24 10:06:16;;;;;;;21.65;4.97;;;;;;;10.66;74.87;101201.50;5101114;28;20148;-68
2022/12/24 10:09:05;;;;;;;23.92;7.60;;;;;;;10.66;75.00;101210.41;5100313;28;20161;-69
2022/12/24 10:11:46;;;;;;;32.13;5.80;;;;;;;10.68;75.11;101212.88;5095027;28;20047;-69
2022/12/24 10:14:37;;;;;;;22.50;5.63;;;;;;;10.67;75.02;101200.47;5098439;28;20135;-72
2022/12/24 10:17:22;;;;;;;28.38;7.10;;;;;;;10.66;75.14;101210.41;5094170;28;20068;-70
2022/12/24 10:19:58;;;;;;;22.65;5.65;;;;;;;10.64;75.01;101203.59;5096484;28;20051;-74
2022/12/24 10:22:36;;;;;;;30.48;5.78;;;;;;;10.65;74.97;101200.69;5098848;28;20120;-73
2022/12/24 10:25:14;;;;;;;21.98;6.07;;;;;;;10.56;75.08;101195.78;5105197;28;20044;-72
2022/12/24 10:27:42;;;;;;;30.80;7.32;;;;;;;10.65;75.14;101206.06;5098571;28;20291;-74
2022/12/24 10:30:15;;;;;;;31.13;5.63;;;;;;;10.63;75.10;101208.16;5098247;28;20056;-73
2022/12/24 10:32:48;;;;;;;30.60;6.13;;;;;;;10.63;75.32;101208.16;5099177;28;20095;-72
2022/12/24 10:35:22;;;;;;;27.50;5.05;;;;;;;10.64;75.08;101209.78;5109081;28;20122;-73
2022/12/24 10:37:52;;;;;;;23.00;5.38;;;;;;;10.62;75.05;101211.88;5098254;28;20101;-72
2022/12/24 10:40:28;;;;;;;25.38;6.05;;;;;;;10.63;75.13;101218.06;5094579;28;20487;-73
2022/12/24 10:42:56;;;;;;;27.15;6.20;;;;;;;10.64;75.19;101207.09;5094589;28;20044;-70
2022/12/24 10:45:32;;;;;;;21.40;5.72;;;;;;;10.64;75.15;101207.09;5098260;28;20174;-71
2022/12/24 10:48:11;;;;;;;26.98;5.43;;;;;;;10.66;75.17;101213.09;5092490;28;20055;-69
2022/12/24 10:50:43;;;;;;;20.90;4.80;;;;;;;10.64;75.34;101211.66;5094549;28;20459;-70
2022/12/24 10:53:19;;;;;;;26.67;5.93;;;;;;;10.66;75.06;101207.72;5083923;28;20090;-69
2022/12/24 10:55:48;;;;;;;22.67;5.68;;;;;;;10.67;75.09;101209.38;5093600;28;20142;-69
2022/12/24 10:58:19;;;;;;;25.20;5.32;;;;;;;10.68;75.08;101218.25;5083250;28;20040;-75
2022/12/24 11:00:51;;;;;;;21.90;5.03;;;;;;;10.68;75.01;101200.25;5097040;28;20055;-71
2022/12/24 11:03:29;;;;;;;25.48;7.10;;;;;;;10.68;75.20;101205.63;5089709;28;20048;-74
2022/12/24 11:06:04;;;;;;;22.25;5.05;;;;;;;10.67;75.04;101212.06;5089533;28;20465;-61
2022/12/24 11:08:33;;;;;;;20.58;5.63;;;;;;;10.69;75.21;101211.84;5084343;28;20083;-66
2022/12/24 11:11:03;;;;;;;18.45;4.57;;;;;;;10.68;75.11;101211.00;5090549;28;20044;-74
2022/12/24 11:13:34;;;;;;;18.65;5.28;;;;;;;10.69;74.91;101219.91;5086518;28;20131;-72
2022/12/24 11:16:08;;;;;;;23.73;6.60;;;;;;;10.71;75.05;101225.91;5096707;28;20844;-73
2022/12/24 11:18:44;;;;;;;20.70;5.95;;;;;;;10.74;75.08;101218.22;5092143;28;20111;-71
2022/12/24 11:21:24;;;;;;;26.13;5.35;;;;;;;10.68;75.27;101210.19;5097897;28;20063;-72
2022/12/24 11:23:55;;;;;;;19.45;5.28;;;;;;;10.74;75.27;101217.41;5100485;28;20058;-68
2022/12/24 11:26:25;;;;;;;22.38;6.10;;;;;;;10.74;75.04;101220.91;5095767;28;20271;-68
2022/12/24 11:29:14;;;;;;;18.10;5.00;;;;;;;10.74;75.16;101223.59;5097366;28;20614;-66
2022/12/24 11:31:43;;;;;;;25.10;6.35;;;;;;;10.76;75.11;101229.59;5094852;28;20047;-71
2022/12/24 11:34:29;;;;;;;17.25;5.53;;;;;;;10.75;75.20;101221.75;5096362;28;20147;-69
2022/12/24 11:37:10;;;;;;;28.33;6.85;;;;;;;10.78;75.23;101229.38;5102136;28;20047;-70
2022/12/24 11:39:46;;;;;;;22.50;6.15;;;;;;;10.77;75.08;101225.88;5091503;28;20044;-69
2022/12/24 11:42:25;;;;;;;19.00;4.53;;;;;;;10.80;75.03;101235.38;5099884;28;20396;-69